Time;durP1;ratioP1;P1;durP2;ratioP2;P2;SDS_P1;SDS_P2;PMS_P1;PMS_P2;Temp;Humidity;BMP_temperature;BMP_pressure;BME280_temperature;BME280_humidity;BME280_pressure;Samples;Min_cycle;Max_cycle;Signal;HPM_P1;HPM_P2
2023/04/28 00:01:38;;;;;;;9.95;5.57;;;;;;;;;;5014767;28;20050;-92
2023/04/28 00:04:06;;;;;;;7.50;5.43;;;;;;;;;;5016685;28;20140;-93
2023/04/28 00:06:34;;;;;;;11.52;5.47;;;;;;;;;;5016784;28;20108;-93
2023/04/28 00:09:02;;;;;;;9.25;5.32;;;;;;;;;;5014793;28;20129;-93
2023/04/28 00:11:30;;;;;;;12.70;5.95;;;;;;;;;;5014506;28;20066;-93
2023/04/28 00:13:57;;;;;;;6.47;5.55;;;;;;;;;;5014738;28;20469;-92
2023/04/28 00:16:24;;;;;;;6.35;5.18;;;;;;;;;;5014357;28;20069;-93
2023/04/28 00:18:52;;;;;;;6.75;5.20;;;;;;;;;;5015351;28;20060;-93
2023/04/28 00:21:19;;;;;;;10.13;5.85;;;;;;;;;;5021157;28;20485;-93
2023/04/28 00:23:46;;;;;;;7.72;4.95;;;;;;;;;;5018317;28;20406;-93
2023/04/28 00:26:14;;;;;;;8.55;5.47;;;;;;;;;;5013961;28;20071;-93
2023/04/28 00:28:41;;;;;;;10.02;5.60;;;;;;;;;;5014170;28;20056;-93
2023/04/28 00:31:11;;;;;;;7.88;5.57;;;;;;;;;;5014164;28;20451;-93
2023/04/28 00:33:39;;;;;;;10.57;5.72;;;;;;;;;;5014196;28;20140;-93
2023/04/28 00:36:07;;;;;;;9.77;5.53;;;;;;;;;;5014087;28;20141;-93
2023/04/28 00:38:34;;;;;;;6.68;5.70;;;;;;;;;;5014455;28;20129;-93
2023/04/28 00:41:02;;;;;;;9.07;5.28;;;;;;;;;;5013760;28;20128;-93
2023/04/28 00:43:29;;;;;;;9.40;5.88;;;;;;;;;;5014021;28;20049;-93
2023/04/28 00:45:57;;;;;;;6.85;5.72;;;;;;;;;;5014009;28;20060;-93
2023/04/28 00:48:25;;;;;;;8.02;4.95;;;;;;;;;;5013813;28;20520;-93
2023/04/28 00:50:52;;;;;;;11.20;6.07;;;;;;;;;;5013856;28;20060;-93
2023/04/28 00:53:20;;;;;;;14.93;6.20;;;;;;;;;;5013841;28;20176;-93
2023/04/28 00:55:47;;;;;;;9.10;6.00;;;;;;;;;;5013936;28;20460;-93
2023/04/28 00:58:14;;;;;;;9.02;5.43;;;;;;;;;;5013836;28;20066;-93
2023/04/28 01:00:42;;;;;;;8.90;5.30;;;;;;;;;;5013515;28;20137;-93
2023/04/28 01:03:09;;;;;;;8.27;5.88;;;;;;;;;;5013916;28;20050;-93
2023/04/28 01:05:37;;;;;;;8.20;5.68;;;;;;;;;;5013505;28;20053;-94
2023/04/28 01:08:04;;;;;;;8.10;5.40;;;;;;;;;;5013688;28;20049;-92
2023/04/28 01:10:32;;;;;;;5.47;5.00;;;;;;;;;;5013486;28;20081;-93
2023/04/28 01:12:59;;;;;;;5.70;5.20;;;;;;;;;;5013617;28;20073;-93
2023/04/28 01:15:27;;;;;;;7.95;4.70;;;;;;;;;;5012560;28;20488;-92
2023/04/28 01:17:55;;;;;;;5.97;5.40;;;;;;;;;;5013531;28;20146;-93
2023/04/28 01:20:22;;;;;;;12.18;5.47;;;;;;;;;;5013631;28;20061;-93
2023/04/28 01:22:50;;;;;;;9.20;5.85;;;;;;;;;;5013562;28;20140;-92
2023/04/28 01:25:17;;;;;;;9.15;5.85;;;;;;;;;;5013513;28;20100;-93
2023/04/28 01:27:44;;;;;;;8.65;5.80;;;;;;;;;;5014293;28;20057;-93
2023/04/28 01:30:12;;;;;;;8.60;6.28;;;;;;;;;;5013240;28;20046;-93
2023/04/28 01:32:39;;;;;;;6.20;5.60;;;;;;;;;;5014187;28;20141;-93
2023/04/28 01:35:07;;;;;;;6.38;5.78;;;;;;;;;;5020902;28;20490;-93
2023/04/28 01:37:34;;;;;;;9.65;5.30;;;;;;;;;;5017129;28;20050;-93
2023/04/28 01:40:01;;;;;;;8.65;5.50;;;;;;;;;;5013198;28;20061;-93
2023/04/28 01:42:29;;;;;;;8.57;5.45;;;;;;;;;;5012896;28;20053;-93
2023/04/28 01:44:56;;;;;;;6.75;5.68;;;;;;;;;;5013375;28;20073;-93
2023/04/28 01:47:23;;;;;;;8.00;5.68;;;;;;;;;;5013212;28;20225;-93
2023/04/28 01:49:51;;;;;;;9.38;5.70;;;;;;;;;;5013658;28;20073;-93
2023/04/28 01:52:21;;;;;;;6.70;5.53;;;;;;;;;;5013323;28;20049;-93
2023/04/28 01:54:48;;;;;;;7.25;5.78;;;;;;;;;;5013309;28;20494;-93
2023/04/28 01:57:16;;;;;;;11.43;6.32;;;;;;;;;;5012513;28;20490;-93
2023/04/28 01:59:44;;;;;;;7.28;6.15;;;;;;;;;;5013136;28;20050;-93
2023/04/28 02:02:11;;;;;;;6.53;5.57;;;;;;;;;;5012634;28;20054;-93
2023/04/28 02:04:39;;;;;;;7.00;5.55;;;;;;;;;;5013061;28;20464;-93
2023/04/28 02:07:06;;;;;;;8.77;5.80;;;;;;;;;;5012719;28;20077;-93
2023/04/28 02:09:34;;;;;;;8.63;5.80;;;;;;;;;;5012655;28;20141;-93
2023/04/28 02:12:02;;;;;;;10.70;6.07;;;;;;;;;;5013109;28;20117;-93
2023/04/28 02:14:32;;;;;;;10.45;6.32;;;;;;;;;;5017350;28;20054;-93
2023/04/28 02:16:59;;;;;;;8.07;6.03;;;;;;;;;;5013851;28;20045;-93
2023/04/28 02:19:27;;;;;;;7.55;6.10;;;;;;;;;;5012705;28;20081;-92
2023/04/28 02:21:54;;;;;;;10.18;5.97;;;;;;;;;;5012002;28;20077;-92
2023/04/28 02:24:22;;;;;;;8.80;6.18;;;;;;;;;;5012442;28;20160;-93
2023/04/28 02:26:49;;;;;;;8.15;5.80;;;;;;;;;;5013535;28;20077;-93
2023/04/28 02:29:16;;;;;;;9.75;6.07;;;;;;;;;;5016715;28;20470;-93
2023/04/28 02:31:43;;;;;;;11.00;5.85;;;;;;;;;;5016237;28;20115;-93
2023/04/28 02:34:11;;;;;;;9.27;6.28;;;;;;;;;;5016059;28;20497;-93
2023/04/28 02:36:39;;;;;;;13.23;6.63;;;;;;;;;;5016677;28;20060;-93
2023/04/28 02:39:06;;;;;;;7.32;6.57;;;;;;;;;;5016126;28;20061;-93
2023/04/28 02:41:34;;;;;;;10.32;6.82;;;;;;;;;;5016323;28;20144;-93
2023/04/28 02:44:01;;;;;;;9.48;6.05;;;;;;;;;;5016401;28;20137;-93
2023/04/28 02:46:28;;;;;;;8.80;5.85;;;;;;;;;;5016883;28;20070;-94
2023/04/28 02:48:56;;;;;;;6.93;6.05;;;;;;;;;;5024150;28;20073;-93
2023/04/28 02:51:23;;;;;;;8.77;6.00;;;;;;;;;;5020008;28;20069;-93
2023/04/28 02:53:51;;;;;;;7.28;5.70;;;;;;;;;;5015940;28;20049;-93
2023/04/28 02:56:18;;;;;;;8.52;5.95;;;;;;;;;;5016109;28;20109;-93
2023/04/28 02:58:46;;;;;;;8.48;5.40;;;;;;;;;;5016804;28;20050;-93
2023/04/28 03:01:13;;;;;;;7.13;5.25;;;;;;;;;;5016050;28;20145;-93
2023/04/28 03:03:41;;;;;;;11.25;5.85;;;;;;;;;;5016060;28;20053;-92
2023/04/28 03:06:09;;;;;;;10.60;5.57;;;;;;;;;;5016904;28;20050;-93
2023/04/28 03:08:38;;;;;;;12.27;5.60;;;;;;;;;;5017051;28;20096;-93
2023/04/28 03:11:06;;;;;;;8.52;5.68;;;;;;;;;;5016563;28;20054;-92
2023/04/28 03:13:34;;;;;;;9.30;5.85;;;;;;;;;;5016094;28;20076;-93
2023/04/28 03:16:05;;;;;;;8.18;5.03;;;;;;;;;;5016475;28;20422;-92
2023/04/28 03:18:32;;;;;;;6.30;5.50;;;;;;;;;;5016316;28;20049;-93
2023/04/28 03:21:00;;;;;;;7.07;5.57;;;;;;;;;;5017146;28;20522;-93
2023/04/28 03:23:28;;;;;;;7.15;5.45;;;;;;;;;;5016797;28;20119;-93
2023/04/28 03:25:55;;;;;;;9.40;5.57;;;;;;;;;;5016736;28;20085;-93
2023/04/28 03:28:22;;;;;;;10.18;5.45;;;;;;;;;;5017587;28;20160;-93
2023/04/28 03:30:50;;;;;;;6.55;5.95;;;;;;;;;;5015831;28;20133;-93
2023/04/28 03:33:17;;;;;;;9.45;6.45;;;;;;;;;;5016308;28;20046;-94
2023/04/28 03:35:45;;;;;;;9.18;6.43;;;;;;;;;;5016775;28;20058;-94
2023/04/28 03:38:12;;;;;;;11.07;6.25;;;;;;;;;;5014359;28;20076;-94
2023/04/28 03:40:40;;;;;;;9.45;7.07;;;;;;;;;;5015593;28;20054;-94
2023/04/28 03:43:08;;;;;;;10.15;6.70;;;;;;;;;;5000972;28;20058;-94
2023/04/28 03:45:35;;;;;;;9.95;6.40;;;;;;;;;;5016075;28;20137;-94
2023/04/28 03:48:02;;;;;;;6.60;5.90;;;;;;;;;;5016544;28;20124;-94
2023/04/28 03:50:30;;;;;;;8.00;5.68;;;;;;;;;;5017115;28;20081;-93
2023/04/28 03:52:57;;;;;;;10.40;6.18;;;;;;;;;;5016862;28;20057;-94
2023/04/28 03:55:25;;;;;;;7.97;6.10;;;;;;;;;;5016058;28;20081;-94
2023/04/28 03:57:52;;;;;;;12.75;6.72;;;;;;;;;;5016822;28;20053;-93
2023/04/28 04:00:19;;;;;;;6.85;5.47;;;;;;;;;;5017840;28;20077;-93
2023/04/28 04:02:47;;;;;;;9.82;6.60;;;;;;;;;;5026327;28;20044;-94
2023/04/28 04:05:15;;;;;;;9.02;5.95;;;;;;;;;;5025078;28;20065;-94
2023/04/28 04:07:42;;;;;;;9.60;6.07;;;;;;;;;;5017626;28;20046;-94
2023/04/28 04:10:10;;;;;;;7.25;5.47;;;;;;;;;;5016326;28;20589;-94
2023/04/28 04:12:37;;;;;;;6.93;5.72;;;;;;;;;;5017958;28;20069;-94
2023/04/28 04:15:05;;;;;;;7.05;6.05;;;;;;;;;;5018137;28;20108;-94
2023/04/28 04:17:33;;;;;;;8.00;6.13;;;;;;;;;;5015754;28;20085;-93
2023/04/28 04:20:00;;;;;;;6.82;6.13;;;;;;;;;;5017558;28;20053;-93
2023/04/28 04:22:27;;;;;;;9.18;6.13;;;;;;;;;;5017561;28;20520;-94
2023/04/28 04:24:55;;;;;;;9.88;6.15;;;;;;;;;;5025392;28;20077;-94
2023/04/28 04:27:22;;;;;;;9.30;6.22;;;;;;;;;;5019203;28;20076;-94
2023/04/28 04:29:50;;;;;;;10.10;5.93;;;;;;;;;;5018185;28;20073;-93
2023/04/28 04:32:17;;;;;;;11.10;6.80;;;;;;;;;;5017333;28;20052;-94
2023/04/28 04:34:45;;;;;;;9.90;6.32;;;;;;;;;;5017243;28;20077;-94
2023/04/28 04:37:12;;;;;;;9.40;6.80;;;;;;;;;;5017587;28;20085;-93
2023/04/28 04:39:40;;;;;;;6.78;6.15;;;;;;;;;;5018005;28;20140;-94
2023/04/28 04:42:07;;;;;;;11.57;6.63;;;;;;;;;;5017053;28;20088;-93
2023/04/28 04:44:50;;;;;;;8.67;6.60;;;;;;;;;;5017764;28;20045;-94
2023/04/28 04:47:19;;;;;;;13.98;7.43;;;;;;;;;;5018053;28;20137;-95
2023/04/28 04:49:47;;;;;;;11.45;6.97;;;;;;;;;;5017265;28;20042;-94
2023/04/28 04:52:15;;;;;;;13.88;7.20;;;;;;;;;;5018302;28;20116;-94
2023/04/28 04:54:42;;;;;;;12.57;7.35;;;;;;;;;;5017547;28;20042;-94
2023/04/28 04:57:10;;;;;;;9.15;6.97;;;;;;;;;;5017416;28;20060;-94
2023/04/28 04:59:38;;;;;;;26.95;9.00;;;;;;;;;;5016095;28;20045;-94
2023/04/28 05:02:05;;;;;;;54.28;8.73;;;;;;;;;;5016458;28;20145;-94
2023/04/28 05:04:34;;;;;;;19.35;7.20;;;;;;;;;;5017717;28;20544;-94
2023/04/28 05:07:06;;;;;;;21.60;7.55;;;;;;;;;;5017667;28;20049;-94
2023/04/28 05:09:33;;;;;;;14.05;6.90;;;;;;;;;;5015904;28;20050;-94
2023/04/28 05:12:01;;;;;;;10.73;6.55;;;;;;;;;;5016448;28;20133;-94
2023/04/28 05:14:29;;;;;;;13.73;5.50;;;;;;;;;;5018320;28;20513;-96
2023/04/28 05:16:56;;;;;;;16.75;7.07;;;;;;;;;;5021867;28;20050;-94
2023/04/28 05:19:23;;;;;;;9.43;6.47;;;;;;;;;;5023578;28;20062;-94
2023/04/28 05:21:53;;;;;;;16.30;8.13;;;;;;;;;;5017191;28;20109;-93
2023/04/28 05:24:24;;;;;;;14.95;7.15;;;;;;;;;;5019334;28;20179;-94
2023/04/28 05:26:53;;;;;;;13.65;7.30;;;;;;;;;;5017072;28;20104;-94
2023/04/28 05:29:20;;;;;;;18.30;7.90;;;;;;;;;;5016123;28;20053;-94
2023/04/28 05:31:49;;;;;;;17.27;8.57;;;;;;;;;;5017784;28;20109;-94
2023/04/28 05:34:17;;;;;;;14.52;8.02;;;;;;;;;;5017625;28;20506;-94
2023/04/28 05:36:45;;;;;;;13.90;8.77;;;;;;;;;;5016316;28;20145;-93
2023/04/28 05:39:13;;;;;;;19.13;9.52;;;;;;;;;;5017878;28;20388;-93
2023/04/28 05:41:41;;;;;;;14.43;8.77;;;;;;;;;;5018427;28;20049;-94
2023/04/28 05:44:09;;;;;;;13.68;8.85;;;;;;;;;;5016874;28;20140;-94
2023/04/28 05:46:36;;;;;;;14.73;9.00;;;;;;;;;;5016218;28;20069;-94
2023/04/28 05:49:04;;;;;;;11.80;8.63;;;;;;;;;;5015645;28;20141;-94
2023/04/28 05:51:33;;;;;;;11.10;9.07;;;;;;;;;;5015866;28;20069;-93
2023/04/28 05:54:00;;;;;;;12.05;9.45;;;;;;;;;;5014377;28;20050;-94
2023/04/28 05:56:28;;;;;;;12.32;9.30;;;;;;;;;;5015176;28;20057;-94
2023/04/28 05:58:55;;;;;;;11.73;8.70;;;;;;;;;;5015411;28;20054;-92
2023/04/28 06:01:23;;;;;;;12.60;8.55;;;;;;;;;;5014543;28;20525;-94
2023/04/28 06:03:52;;;;;;;16.90;9.52;;;;;;;;;;5019374;28;20092;-93
2023/04/28 06:06:20;;;;;;;13.15;9.00;;;;;;;;;;5026824;28;20080;-93
2023/04/28 06:08:48;;;;;;;16.42;10.45;;;;;;;;;;5018159;28;20124;-94
2023/04/28 06:11:15;;;;;;;13.98;10.30;;;;;;;;;;5017457;28;20084;-94
2023/04/28 06:13:43;;;;;;;14.13;10.02;;;;;;;;;;5017841;28;20108;-93
2023/04/28 06:16:10;;;;;;;12.73;10.00;;;;;;;;;;5017935;28;20132;-94
2023/04/28 06:18:38;;;;;;;16.58;9.35;;;;;;;;;;5018531;28;20046;-94
2023/04/28 06:21:05;;;;;;;16.30;9.00;;;;;;;;;;5017401;28;20054;-94
2023/04/28 06:23:32;;;;;;;13.30;9.40;;;;;;;;;;5016960;28;20054;-94
2023/04/28 06:26:00;;;;;;;17.38;10.48;;;;;;;;;;5017163;28;20498;-94
2023/04/28 06:28:27;;;;;;;17.02;9.20;;;;;;;;;;5016959;28;20072;-94
2023/04/28 06:30:55;;;;;;;15.48;9.90;;;;;;;;;;5028437;28;20098;-93
2023/04/28 06:33:22;;;;;;;17.73;9.63;;;;;;;;;;5034226;28;20109;-92
2023/04/28 06:35:49;;;;;;;19.20;10.80;;;;;;;;;;5016415;28;20056;-91
2023/04/28 06:38:17;;;;;;;15.82;9.95;;;;;;;;;;5016124;28;20052;-91
2023/04/28 06:40:44;;;;;;;16.70;10.02;;;;;;;;;;5016095;28;20057;-89
2023/04/28 06:43:12;;;;;;;10.98;9.00;;;;;;;;;;5016921;28;20054;-89
2023/04/28 06:45:39;;;;;;;14.60;9.32;;;;;;;;;;5015841;28;20053;-89
2023/04/28 06:48:07;;;;;;;14.25;9.95;;;;;;;;;;5015930;28;20064;-89
2023/04/28 06:50:34;;;;;;;16.65;10.40;;;;;;;;;;5017024;28;20053;-88
2023/04/28 06:53:01;;;;;;;13.27;10.25;;;;;;;;;;5017088;28;20417;-87
2023/04/28 06:55:29;;;;;;;19.80;10.70;;;;;;;;;;5015733;28;20042;-88
2023/04/28 06:57:56;;;;;;;15.75;12.02;;;;;;;;;;5015705;28;20050;-87
2023/04/28 07:00:23;;;;;;;22.13;14.52;;;;;;;;;;5015367;28;20076;-86
2023/04/28 07:02:51;;;;;;;20.02;12.68;;;;;;;;;;5015293;28;20046;-85
2023/04/28 07:05:18;;;;;;;19.58;12.43;;;;;;;;;;5016086;28;20112;-85
2023/04/28 07:07:47;;;;;;;20.92;17.30;;;;;;;;;;5015936;28;20112;-84
2023/04/28 07:10:15;;;;;;;30.33;22.75;;;;;;;;;;5014148;28;20050;-84
2023/04/28 07:12:42;;;;;;;25.63;18.40;;;;;;;;;;5014438;28;20145;-84
2023/04/28 07:15:09;;;;;;;22.38;15.60;;;;;;;;;;5014588;28;20046;-84
2023/04/28 07:17:37;;;;;;;17.98;14.27;;;;;;;;;;5014735;28;20410;-84
2023/04/28 07:20:05;;;;;;;19.02;12.75;;;;;;;;;;5015601;28;20629;-85
2023/04/28 07:22:32;;;;;;;21.35;13.18;;;;;;;;;;5015176;28;20150;-83
2023/04/28 07:25:00;;;;;;;21.08;14.30;;;;;;;;;;5015651;28;20054;-84
2023/04/28 07:27:27;;;;;;;21.40;14.50;;;;;;;;;;5014626;28;20398;-85
2023/04/28 07:29:54;;;;;;;18.95;14.20;;;;;;;;;;5015555;28;20046;-85
2023/04/28 07:32:21;;;;;;;23.52;16.27;;;;;;;;;;5015312;28;20606;-85
2023/04/28 07:34:49;;;;;;;21.75;12.32;;;;;;;;;;5014045;28;20150;-85
2023/04/28 07:37:18;;;;;;;19.42;13.15;;;;;;;;;;5014876;28;20469;-84
2023/04/28 07:39:46;;;;;;;22.70;14.90;;;;;;;;;;5013984;28;20049;-84
2023/04/28 07:42:13;;;;;;;24.58;16.45;;;;;;;;;;5015495;28;20133;-84
2023/04/28 07:44:41;;;;;;;30.95;23.27;;;;;;;;;;5021843;28;20053;-84
2023/04/28 07:47:08;;;;;;;24.52;16.20;;;;;;;;;;5022804;28;20049;-84
2023/04/28 07:49:35;;;;;;;24.58;14.98;;;;;;;;;;5014206;28;20064;-84
2023/04/28 07:52:02;;;;;;;21.70;13.52;;;;;;;;;;5014300;28;20060;-84
2023/04/28 07:54:29;;;;;;;19.60;12.98;;;;;;;;;;5013676;28;20057;-85
2023/04/28 07:56:57;;;;;;;23.33;16.70;;;;;;;;;;5014780;28;20073;-85
2023/04/28 07:59:24;;;;;;;20.35;16.58;;;;;;;;;;5014939;28;20058;-85
2023/04/28 08:01:51;;;;;;;24.98;15.70;;;;;;;;;;5014772;28;20490;-85
2023/04/28 08:04:18;;;;;;;22.00;15.57;;;;;;;;;;5013490;28;20054;-85
2023/04/28 08:06:46;;;;;;;23.20;17.30;;;;;;;;;;5013510;28;20069;-85
2023/04/28 08:09:14;;;;;;;20.02;15.18;;;;;;;;;;5014647;28;20149;-85
2023/04/28 08:11:41;;;;;;;17.77;14.73;;;;;;;;;;5013571;28;20081;-84
2023/04/28 08:14:09;;;;;;;17.70;11.77;;;;;;;;;;5014607;28;20585;-85
2023/04/28 08:16:39;;;;;;;15.20;11.82;;;;;;;;;;5013221;28;20481;-84
2023/04/28 08:19:06;;;;;;;14.45;10.52;;;;;;;;;;5013197;28;20104;-85
2023/04/28 08:21:33;;;;;;;10.40;9.35;;;;;;;;;;5013012;28;20050;-85
2023/04/28 08:24:01;;;;;;;14.10;9.82;;;;;;;;;;5012441;28;20054;-84
2023/04/28 08:26:28;;;;;;;10.43;9.25;;;;;;;;;;5014039;28;20046;-84
2023/04/28 08:28:55;;;;;;;15.50;10.27;;;;;;;;;;5012974;28;20053;-85
2023/04/28 08:31:23;;;;;;;16.40;10.70;;;;;;;;;;5013070;28;20056;-85
2023/04/28 08:33:50;;;;;;;17.60;12.02;;;;;;;;;;5014102;28;20085;-84
2023/04/28 08:36:18;;;;;;;20.88;14.80;;;;;;;;;;5014051;28;20050;-85
2023/04/28 08:38:46;;;;;;;15.23;12.02;;;;;;;;;;5013221;28;20060;-85
2023/04/28 08:41:14;;;;;;;16.33;11.10;;;;;;;;;;5012924;28;20457;-85
2023/04/28 08:43:42;;;;;;;16.30;10.77;;;;;;;;;;5012628;28;20056;-84
2023/04/28 08:46:09;;;;;;;13.02;10.38;;;;;;;;;;5013804;28;20049;-85
2023/04/28 08:48:41;;;;;;;16.13;11.75;;;;;;;;;;5013861;28;20100;-85
2023/04/28 08:51:09;;;;;;;17.25;10.80;;;;;;;;;;5012942;28;20052;-85
2023/04/28 08:53:37;;;;;;;14.07;10.50;;;;;;;;;;5013041;28;20049;-85
2023/04/28 08:56:26;;;;;;;13.82;9.68;;;;;;;;;;5013050;28;20057;-85
2023/04/28 08:58:54;;;;;;;15.98;9.23;;;;;;;;;;5023207;28;20121;-85
2023/04/28 09:01:22;;;;;;;11.05;8.52;;;;;;;;;;5020491;28;20060;-85
2023/04/28 09:03:50;;;;;;;12.68;8.43;;;;;;;;;;5012279;28;20093;-85
2023/04/28 09:06:17;;;;;;;9.40;8.48;;;;;;;;;;5013316;28;20409;-86
2023/04/28 09:08:45;;;;;;;12.07;8.55;;;;;;;;;;5012573;28;20050;-85
2023/04/28 09:11:13;;;;;;;14.18;9.40;;;;;;;;;;5012463;28;20048;-86
2023/04/28 09:13:40;;;;;;;12.57;10.32;;;;;;;;;;5012512;28;20049;-85
2023/04/28 09:16:08;;;;;;;14.98;10.27;;;;;;;;;;5012627;28;20042;-86
2023/04/28 09:18:35;;;;;;;15.43;12.18;;;;;;;;;;5012821;28;20133;-87
2023/04/28 09:21:03;;;;;;;13.10;11.15;;;;;;;;;;5013578;28;20058;-86
2023/04/28 09:23:32;;;;;;;21.38;12.50;;;;;;;;;;5012789;28;20060;-86
2023/04/28 09:26:06;;;;;;;21.85;14.32;;;;;;;;;;5013012;28;20050;-86
2023/04/28 09:28:35;;;;;;;23.65;15.68;;;;;;;;;;5012858;28;20073;-86
2023/04/28 09:31:02;;;;;;;24.90;15.63;;;;;;;;;;5013973;28;20049;-86
2023/04/28 09:33:30;;;;;;;21.08;14.77;;;;;;;;;;5012820;28;20050;-87
2023/04/28 09:35:57;;;;;;;19.52;15.70;;;;;;;;;;5011944;28;20092;-86
2023/04/28 09:38:25;;;;;;;21.13;15.30;;;;;;;;;;5012844;28;20054;-87
2023/04/28 09:40:53;;;;;;;24.58;16.20;;;;;;;;;;5013639;28;20142;-87
2023/04/28 09:43:27;;;;;;;25.08;17.92;;;;;;;;;;5013571;28;20058;-86
2023/04/28 09:45:55;;;;;;;28.25;21.45;;;;;;;;;;5012705;28;20050;-86
2023/04/28 09:48:29;;;;;;;18.20;14.38;;;;;;;;;;5012369;28;20058;-86
2023/04/28 09:50:58;;;;;;;17.35;11.13;;;;;;;;;;5012168;28;20050;-86
2023/04/28 09:53:26;;;;;;;18.67;9.82;;;;;;;;;;5012493;28;20425;-85
2023/04/28 09:55:54;;;;;;;10.75;6.93;;;;;;;;;;5012544;28;20054;-86
2023/04/28 09:58:22;;;;;;;9.00;7.10;;;;;;;;;;5012368;28;20505;-87
2023/04/28 10:00:52;;;;;;;9.80;7.22;;;;;;;;;;5013343;28;20046;-87
2023/04/28 10:03:21;;;;;;;8.95;7.25;;;;;;;;;;5012242;28;20477;-87
2023/04/28 10:05:52;;;;;;;9.43;7.97;;;;;;;;;;5012437;28;20061;-88
2023/04/28 10:08:23;;;;;;;9.10;7.07;;;;;;;;;;5012363;28;20137;-87
2023/04/28 10:10:53;;;;;;;10.57;7.20;;;;;;;;;;5012478;28;20053;-87
2023/04/28 10:13:21;;;;;;;8.65;6.55;;;;;;;;;;5029013;28;20042;-88
2023/04/28 10:15:49;;;;;;;6.97;6.28;;;;;;;;;;5014529;28;20425;-86
2023/04/28 10:18:17;;;;;;;7.68;6.70;;;;;;;;;;5012300;28;20084;-87
2023/04/28 10:20:55;;;;;;;10.80;6.47;;;;;;;;;;5011908;28;20112;-85
2023/04/28 10:23:28;;;;;;;7.05;5.97;;;;;;;;;;5012341;28;20060;-86
2023/04/28 10:25:59;;;;;;;;;;;;;;;;;;5013284;28;20078;-85
2023/04/28 10:28:27;;;;;;;10.38;6.78;;;;;;;;;;5012157;28;19933;-86
2023/04/28 10:31:13;;;;;;;8.32;5.90;;;;;;;;;;5012081;28;20052;-86
2023/04/28 10:33:41;;;;;;;10.18;6.85;;;;;;;;;;5012243;28;20049;-86
2023/04/28 10:36:09;;;;;;;7.25;6.43;;;;;;;;;;5011947;28;20060;-86
2023/04/28 10:39:01;;;;;;;8.07;5.90;;;;;;;;;;5012106;28;20046;-86
2023/04/28 10:41:32;;;;;;;9.57;6.15;;;;;;;;;;5011976;28;20426;-86
2023/04/28 10:43:59;;;;;;;7.13;5.88;;;;;;;;;;5011786;28;20145;-86
2023/04/28 10:46:26;;;;;;;7.95;5.93;;;;;;;;;;5011965;28;20113;-86
2023/04/28 10:48:54;;;;;;;8.27;5.90;;;;;;;;;;5014564;28;20057;-86
2023/04/28 10:51:23;;;;;;;7.38;5.63;;;;;;;;;;5015512;28;20054;-86
2023/04/28 10:53:51;;;;;;;7.15;6.45;;;;;;;;;;5015526;28;20080;-86
2023/04/28 10:56:24;;;;;;;15.38;6.07;;;;;;;;;;5016311;28;20085;-86
2023/04/28 10:58:55;;;;;;;13.23;8.32;;;;;;;;;;5015298;28;20132;-85
2023/04/28 11:01:25;;;;;;;7.50;6.15;;;;;;;;;;5014929;28;20067;-86
2023/04/28 11:04:02;;;;;;;8.93;5.85;;;;;;;;;;5015107;28;20053;-86
2023/04/28 11:07:00;;;;;;;5.75;4.50;;;;;;;;;;5015023;28;20057;-85
2023/04/28 11:09:30;;;;;;;8.80;5.57;;;;;;;;;;5010370;28;20049;-85
2023/04/28 11:11:57;;;;;;;6.32;4.80;;;;;;;;;;5015985;28;20050;-85
2023/04/28 11:14:25;;;;;;;6.68;5.10;;;;;;;;;;5015796;28;20149;-85
2023/04/28 11:16:59;;;;;;;8.18;4.97;;;;;;;;;;5014544;28;20053;-85
2023/04/28 11:19:28;;;;;;;5.70;5.07;;;;;;;;;;5015741;28;20057;-84
2023/04/28 11:21:56;;;;;;;5.22;4.22;;;;;;;;;;5015480;28;20076;-84
2023/04/28 11:24:24;;;;;;;4.75;4.35;;;;;;;;;;5014329;28;20054;-85
2023/04/28 11:26:52;;;;;;;4.00;3.65;;;;;;;;;;5024494;28;20129;-84
2023/04/28 11:29:30;;;;;;;5.88;3.90;;;;;;;;;;5015305;28;20099;-84
2023/04/28 11:31:57;;;;;;;4.75;3.83;;;;;;;;;;5015426;28;20057;-84
2023/04/28 11:34:25;;;;;;;5.50;3.60;;;;;;;;;;5014070;28;20049;-83
2023/04/28 11:36:52;;;;;;;3.40;3.10;;;;;;;;;;5014161;28;20054;-83
2023/04/28 11:39:31;;;;;;;3.70;3.22;;;;;;;;;;5015008;28;20046;-83
2023/04/28 11:41:59;;;;;;;4.47;3.20;;;;;;;;;;5013971;28;20052;-84
2023/04/28 11:44:28;;;;;;;6.78;3.53;;;;;;;;;;5014016;28;20061;-83
2023/04/28 11:46:59;;;;;;;4.85;2.95;;;;;;;;;;5015133;28;20053;-83
2023/04/28 11:49:28;;;;;;;2.92;2.67;;;;;;;;;;5013936;28;20050;-83
2023/04/28 11:51:55;;;;;;;2.97;2.70;;;;;;;;;;5014044;28;20420;-84
2023/04/28 11:54:27;;;;;;;3.33;2.55;;;;;;;;;;5013849;28;20053;-86
2023/04/28 11:56:56;;;;;;;2.38;2.17;;;;;;;;;;5015207;28;20132;-84
2023/04/28 11:59:36;;;;;;;3.03;2.80;;;;;;;;;;5014274;28;20200;-85
2023/04/28 12:02:06;;;;;;;2.78;2.53;;;;;;;;;;5014202;28;20058;-86
2023/04/28 12:04:40;;;;;;;2.60;2.40;;;;;;;;;;5015180;28;20145;-85
2023/04/28 12:07:12;;;;;;;2.50;2.40;;;;;;;;;;5014098;28;20060;-86
2023/04/28 12:09:42;;;;;;;2.80;2.60;;;;;;;;;;5015673;28;20049;-86
2023/04/28 12:12:12;;;;;;;4.25;2.38;;;;;;;;;;5015381;28;20060;-85
2023/04/28 12:14:55;;;;;;;2.50;2.40;;;;;;;;;;5015588;28;20049;-86
2023/04/28 12:17:24;;;;;;;6.88;2.50;;;;;;;;;;5015479;28;20474;-87
2023/04/28 12:19:51;;;;;;;2.50;2.40;;;;;;;;;;5014393;28;20045;-86
2023/04/28 12:22:19;;;;;;;2.38;2.15;;;;;;;;;;5015168;28;20054;-87
2023/04/28 12:24:46;;;;;;;3.30;2.63;;;;;;;;;;5015038;28;20049;-87
2023/04/28 12:27:15;;;;;;;3.30;2.58;;;;;;;;;;5014148;28;20504;-89
2023/04/28 12:29:42;;;;;;;2.47;2.28;;;;;;;;;;5015429;28;20054;-88
2023/04/28 12:32:11;;;;;;;6.18;2.38;;;;;;;;;;5015490;28;20050;-87
2023/04/28 12:34:39;;;;;;;2.53;2.28;;;;;;;;;;5014011;28;20498;-87
2023/04/28 12:37:06;;;;;;;2.42;2.17;;;;;;;;;;5015696;28;20054;-88
2023/04/28 12:39:35;;;;;;;2.53;1.90;;;;;;;;;;5020698;28;20050;-89
2023/04/28 12:42:05;;;;;;;5.85;1.85;;;;;;;;;;5021654;28;20546;-89
2023/04/28 12:44:37;;;;;;;2.22;2.10;;;;;;;;;;5013794;28;20088;-89
2023/04/28 12:47:09;;;;;;;3.35;1.85;;;;;;;;;;5013817;28;20056;-89
2023/04/28 12:49:38;;;;;;;2.83;1.70;;;;;;;;;;5014110;28;20383;-87
2023/04/28 12:52:06;;;;;;;6.22;2.05;;;;;;;;;;5013816;28;20045;-89
2023/04/28 12:54:33;;;;;;;1.63;1.52;;;;;;;;;;5013793;28;20454;-91
2023/04/28 12:57:01;;;;;;;1.92;1.67;;;;;;;;;;5013907;28;20045;-88
2023/04/28 12:59:30;;;;;;;2.67;1.83;;;;;;;;;;5013617;28;20056;-89
2023/04/28 13:01:57;;;;;;;1.80;1.70;;;;;;;;;;5013904;28;20042;-88
2023/04/28 13:04:25;;;;;;;2.33;2.13;;;;;;;;;;5014526;28;20054;-90
2023/04/28 13:06:53;;;;;;;2.08;1.98;;;;;;;;;;5013691;28;20129;-91
2023/04/28 13:09:20;;;;;;;2.30;1.83;;;;;;;;;;5014431;28;20064;-90
2023/04/28 13:11:47;;;;;;;2.10;2.00;;;;;;;;;;5014458;28;20045;-90
2023/04/28 13:14:14;;;;;;;2.22;2.08;;;;;;;;;;5014292;28;20062;-90
2023/04/28 13:16:42;;;;;;;2.20;2.05;;;;;;;;;;5014721;28;20053;-89
2023/04/28 13:19:12;;;;;;;2.42;2.33;;;;;;;;;;5013632;28;20115;-88
2023/04/28 13:21:41;;;;;;;2.45;2.05;;;;;;;;;;5014133;28;20064;-90
2023/04/28 13:24:09;;;;;;;5.38;2.70;;;;;;;;;;5013037;28;20077;-88
2023/04/28 13:26:37;;;;;;;2.10;2.00;;;;;;;;;;5013460;28;20085;-93
2023/04/28 13:29:04;;;;;;;3.90;2.42;;;;;;;;;;5014071;28;20479;-91
2023/04/28 13:31:31;;;;;;;4.57;2.40;;;;;;;;;;5013351;28;20053;-91
2023/04/28 13:34:00;;;;;;;3.35;2.47;;;;;;;;;;5013225;28;20081;-89
2023/04/28 13:36:28;;;;;;;2.70;2.50;;;;;;;;;;5012919;28;20050;-91
2023/04/28 13:38:56;;;;;;;2.25;2.15;;;;;;;;;;5013156;28;20053;-90
2023/04/28 13:41:24;;;;;;;3.13;2.30;;;;;;;;;;5014306;28;20490;-91
2023/04/28 13:43:52;;;;;;;2.53;2.30;;;;;;;;;;5012930;28;20053;-90
2023/04/28 13:46:20;;;;;;;2.20;2.10;;;;;;;;;;5013006;28;20057;-90
2023/04/28 13:48:49;;;;;;;3.28;2.25;;;;;;;;;;5013935;28;20056;-89
2023/04/28 13:51:16;;;;;;;2.28;2.17;;;;;;;;;;5013505;28;20049;-90
2023/04/28 13:53:43;;;;;;;3.08;2.13;;;;;;;;;;5025715;28;20033;-91
2023/04/28 13:56:11;;;;;;;2.92;2.72;;;;;;;;;;5017516;28;20050;-89
2023/04/28 13:58:38;;;;;;;4.15;3.50;;;;;;;;;;5012972;28;20137;-90
2023/04/28 14:01:06;;;;;;;2.65;2.55;;;;;;;;;;5013120;28;20054;-89
2023/04/28 14:03:34;;;;;;;2.38;2.17;;;;;;;;;;5012695;28;20573;-89
2023/04/28 14:06:03;;;;;;;2.28;2.17;;;;;;;;;;5012699;28;20050;-89
2023/04/28 14:08:30;;;;;;;4.05;2.30;;;;;;;;;;5012970;28;20053;-90
2023/04/28 14:10:57;;;;;;;4.40;2.80;;;;;;;;;;5013718;28;20054;-90
2023/04/28 14:13:25;;;;;;;2.72;2.40;;;;;;;;;;5012516;28;20046;-91
2023/04/28 14:15:56;;;;;;;3.08;2.78;;;;;;;;;;5013770;28;20057;-92
2023/04/28 14:18:25;;;;;;;9.93;3.63;;;;;;;;;;5012843;28;20053;-91
2023/04/28 14:20:53;;;;;;;3.25;3.05;;;;;;;;;;5012564;28;20058;-91
2023/04/28 14:23:23;;;;;;;3.47;3.17;;;;;;;;;;5014666;28;20133;-90
2023/04/28 14:25:56;;;;;;;2.60;2.45;;;;;;;;;;5017567;28;20049;-90
2023/04/28 14:28:24;;;;;;;3.60;3.38;;;;;;;;;;5016389;28;20061;-90
2023/04/28 14:30:53;;;;;;;3.08;2.78;;;;;;;;;;5017769;28;20141;-91
2023/04/28 14:33:20;;;;;;;14.02;5.38;;;;;;;;;;5016488;28;20428;-90
2023/04/28 14:35:47;;;;;;;4.60;3.15;;;;;;;;;;5016305;28;20201;-90
2023/04/28 14:38:15;;;;;;;3.30;3.00;;;;;;;;;;5017526;28;20049;-91
2023/04/28 14:40:46;;;;;;;3.15;2.90;;;;;;;;;;5017723;28;20085;-90
2023/04/28 14:43:13;;;;;;;4.15;2.85;;;;;;;;;;5016050;28;20050;-89